sensor_id;sensor_type;location;lat;lon;timestamp;P1;durP1;ratioP1;P2;durP2;ratioP2
70126;SDS011;57491;42.694;23.314;2023-05-07T00:01:16;12.27;;;9.23;;
70126;SDS011;57491;42.694;23.314;2023-05-07T00:03:43;13.10;;;9.48;;
70126;SDS011;57491;42.694;23.314;2023-05-07T00:06:09;19.25;;;10.70;;
70126;SDS011;57491;42.694;23.314;2023-05-07T00:08:38;11.77;;;9.90;;
70126;SDS011;57491;42.694;23.314;2023-05-07T00:11:05;15.98;;;9.95;;
70126;SDS011;57491;42.694;23.314;2023-05-07T00:13:32;13.88;;;10.05;;
70126;SDS011;57491;42.694;23.314;2023-05-07T00:16:02;17.65;;;11.13;;
70126;SDS011;57491;42.694;23.314;2023-05-07T00:18:29;17.60;;;11.80;;
70126;SDS011;57491;42.694;23.314;2023-05-07T00:20:56;16.27;;;9.97;;
70126;SDS011;57491;42.694;23.314;2023-05-07T00:23:23;15.03;;;10.77;;
70126;SDS011;57491;42.694;23.314;2023-05-07T00:25:50;13.80;;;9.37;;
70126;SDS011;57491;42.694;23.314;2023-05-07T00:28:17;15.35;;;9.82;;
70126;SDS011;57491;42.694;23.314;2023-05-07T00:30:44;18.13;;;10.27;;
70126;SDS011;57491;42.694;23.314;2023-05-07T00:33:12;12.60;;;10.23;;
70126;SDS011;57491;42.694;23.314;2023-05-07T00:35:39;15.65;;;11.23;;
70126;SDS011;57491;42.694;23.314;2023-05-07T00:38:06;17.75;;;10.50;;
70126;SDS011;57491;42.694;23.314;2023-05-07T00:40:33;16.45;;;10.50;;
70126;SDS011;57491;42.694;23.314;2023-05-07T00:43:01;16.60;;;10.10;;
70126;SDS011;57491;42.694;23.314;2023-05-07T00:45:28;17.08;;;10.25;;
70126;SDS011;57491;42.694;23.314;2023-05-07T00:47:55;15.52;;;10.45;;
70126;SDS011;57491;42.694;23.314;2023-05-07T00:50:27;15.57;;;10.90;;
70126;SDS011;57491;42.694;23.314;2023-05-07T00:52:54;14.85;;;10.32;;
70126;SDS011;57491;42.694;23.314;2023-05-07T00:55:22;13.73;;;10.75;;
70126;SDS011;57491;42.694;23.314;2023-05-07T00:57:50;12.40;;;10.10;;
70126;SDS011;57491;42.694;23.314;2023-05-07T01:00:18;18.60;;;10.60;;
70126;SDS011;57491;42.694;23.314;2023-05-07T01:02:46;45.92;;;20.50;;
70126;SDS011;57491;42.694;23.314;2023-05-07T01:05:14;25.15;;;14.73;;
70126;SDS011;57491;42.694;23.314;2023-05-07T01:07:44;30.27;;;15.43;;
70126;SDS011;57491;42.694;23.314;2023-05-07T01:10:13;18.80;;;12.18;;
70126;SDS011;57491;42.694;23.314;2023-05-07T01:12:41;16.88;;;11.65;;
70126;SDS011;57491;42.694;23.314;2023-05-07T01:15:09;17.80;;;11.82;;
70126;SDS011;57491;42.694;23.314;2023-05-07T01:17:37;16.73;;;11.95;;
70126;SDS011;57491;42.694;23.314;2023-05-07T01:20:06;18.33;;;11.70;;
70126;SDS011;57491;42.694;23.314;2023-05-07T01:22:37;18.60;;;12.65;;
70126;SDS011;57491;42.694;23.314;2023-05-07T01:25:05;20.77;;;12.80;;
70126;SDS011;57491;42.694;23.314;2023-05-07T01:27:33;29.10;;;14.48;;
70126;SDS011;57491;42.694;23.314;2023-05-07T01:30:00;26.75;;;13.80;;
70126;SDS011;57491;42.694;23.314;2023-05-07T01:32:29;18.60;;;12.73;;
70126;SDS011;57491;42.694;23.314;2023-05-07T01:34:59;18.08;;;11.35;;
70126;SDS011;57491;42.694;23.314;2023-05-07T01:37:27;18.52;;;11.35;;
70126;SDS011;57491;42.694;23.314;2023-05-07T01:42:23;16.58;;;10.00;;
70126;SDS011;57491;42.694;23.314;2023-05-07T01:44:51;16.67;;;10.35;;
70126;SDS011;57491;42.694;23.314;2023-05-07T01:47:18;11.65;;;8.73;;
70126;SDS011;57491;42.694;23.314;2023-05-07T01:49:47;13.98;;;9.88;;
70126;SDS011;57491;42.694;23.314;2023-05-07T01:52:14;11.88;;;7.68;;
70126;SDS011;57491;42.694;23.314;2023-05-07T01:54:41;9.20;;;7.07;;
70126;SDS011;57491;42.694;23.314;2023-05-07T01:57:09;12.20;;;6.43;;
70126;SDS011;57491;42.694;23.314;2023-05-07T01:59:36;11.18;;;6.45;;
70126;SDS011;57491;42.694;23.314;2023-05-07T02:02:03;11.93;;;6.95;;
70126;SDS011;57491;42.694;23.314;2023-05-07T02:04:30;11.23;;;7.32;;
70126;SDS011;57491;42.694;23.314;2023-05-07T02:06:57;11.33;;;7.70;;
70126;SDS011;57491;42.694;23.314;2023-05-07T02:09:24;8.73;;;7.17;;
70126;SDS011;57491;42.694;23.314;2023-05-07T02:11:51;12.27;;;7.18;;
70126;SDS011;57491;42.694;23.314;2023-05-07T02:14:20;11.30;;;6.25;;
70126;SDS011;57491;42.694;23.314;2023-05-07T02:16:47;9.13;;;6.68;;
70126;SDS011;57491;42.694;23.314;2023-05-07T02:19:13;12.63;;;6.82;;
70126;SDS011;57491;42.694;23.314;2023-05-07T02:21:41;11.23;;;6.80;;
70126;SDS011;57491;42.694;23.314;2023-05-07T02:24:08;9.85;;;7.10;;
70126;SDS011;57491;42.694;23.314;2023-05-07T02:26:35;14.13;;;7.70;;
70126;SDS011;57491;42.694;23.314;2023-05-07T02:29:02;12.50;;;7.50;;
70126;SDS011;57491;42.694;23.314;2023-05-07T02:31:30;13.75;;;7.55;;
70126;SDS011;57491;42.694;23.314;2023-05-07T02:33:59;10.25;;;6.85;;
70126;SDS011;57491;42.694;23.314;2023-05-07T02:36:26;14.95;;;8.30;;
70126;SDS011;57491;42.694;23.314;2023-05-07T02:38:53;13.45;;;7.50;;
70126;SDS011;57491;42.694;23.314;2023-05-07T02:41:20;12.20;;;8.63;;
70126;SDS011;57491;42.694;23.314;2023-05-07T02:43:47;12.40;;;8.20;;
70126;SDS011;57491;42.694;23.314;2023-05-07T02:46:14;14.32;;;8.93;;
70126;SDS011;57491;42.694;23.314;2023-05-07T02:48:43;12.77;;;8.40;;
70126;SDS011;57491;42.694;23.314;2023-05-07T02:51:10;13.88;;;8.05;;
70126;SDS011;57491;42.694;23.314;2023-05-07T02:53:37;12.03;;;8.80;;
70126;SDS011;57491;42.694;23.314;2023-05-07T02:56:04;15.57;;;10.18;;
70126;SDS011;57491;42.694;23.314;2023-05-07T02:58:32;12.88;;;8.73;;
70126;SDS011;57491;42.694;23.314;2023-05-07T03:00:59;16.27;;;10.17;;
70126;SDS011;57491;42.694;23.314;2023-05-07T03:03:27;14.00;;;9.85;;
70126;SDS011;57491;42.694;23.314;2023-05-07T03:05:55;13.00;;;9.27;;
70126;SDS011;57491;42.694;23.314;2023-05-07T03:08:22;15.35;;;9.73;;
70126;SDS011;57491;42.694;23.314;2023-05-07T03:10:49;12.75;;;9.05;;
70126;SDS011;57491;42.694;23.314;2023-05-07T03:13:17;14.85;;;10.13;;
70126;SDS011;57491;42.694;23.314;2023-05-07T03:15:44;19.07;;;10.03;;
70126;SDS011;57491;42.694;23.314;2023-05-07T03:18:11;17.53;;;10.50;;
70126;SDS011;57491;42.694;23.314;2023-05-07T03:20:38;15.10;;;9.68;;
70126;SDS011;57491;42.694;23.314;2023-05-07T03:23:06;14.55;;;9.77;;
70126;SDS011;57491;42.694;23.314;2023-05-07T03:25:33;14.73;;;9.40;;
70126;SDS011;57491;42.694;23.314;2023-05-07T03:28:00;16.30;;;10.63;;
70126;SDS011;57491;42.694;23.314;2023-05-07T03:30:27;15.88;;;10.57;;
70126;SDS011;57491;42.694;23.314;2023-05-07T03:32:54;12.68;;;8.95;;
70126;SDS011;57491;42.694;23.314;2023-05-07T03:35:21;16.63;;;10.02;;
70126;SDS011;57491;42.694;23.314;2023-05-07T03:37:48;14.02;;;9.18;;
70126;SDS011;57491;42.694;23.314;2023-05-07T03:40:17;16.63;;;10.53;;
70126;SDS011;57491;42.694;23.314;2023-05-07T03:42:44;17.08;;;10.25;;
70126;SDS011;57491;42.694;23.314;2023-05-07T03:45:11;14.63;;;9.33;;
70126;SDS011;57491;42.694;23.314;2023-05-07T03:47:38;19.47;;;10.43;;
70126;SDS011;57491;42.694;23.314;2023-05-07T03:50:05;16.95;;;11.30;;
70126;SDS011;57491;42.694;23.314;2023-05-07T03:52:33;15.82;;;9.80;;
70126;SDS011;57491;42.694;23.314;2023-05-07T03:55:00;15.15;;;9.95;;
70126;SDS011;57491;42.694;23.314;2023-05-07T03:57:28;14.23;;;9.43;;
70126;SDS011;57491;42.694;23.314;2023-05-07T03:59:55;20.02;;;11.38;;
70126;SDS011;57491;42.694;23.314;2023-05-07T04:02:23;15.05;;;9.68;;
70126;SDS011;57491;42.694;23.314;2023-05-07T04:04:50;15.88;;;9.68;;
70126;SDS011;57491;42.694;23.314;2023-05-07T04:07:17;18.38;;;9.65;;
70126;SDS011;57491;42.694;23.314;2023-05-07T04:09:44;14.88;;;9.77;;
70126;SDS011;57491;42.694;23.314;2023-05-07T04:12:11;13.98;;;8.63;;
70126;SDS011;57491;42.694;23.314;2023-05-07T04:14:39;15.33;;;9.83;;
70126;SDS011;57491;42.694;23.314;2023-05-07T04:17:06;14.27;;;8.82;;
70126;SDS011;57491;42.694;23.314;2023-05-07T04:19:35;13.50;;;9.15;;
70126;SDS011;57491;42.694;23.314;2023-05-07T04:22:02;11.07;;;8.23;;
70126;SDS011;57491;42.694;23.314;2023-05-07T04:24:30;13.10;;;8.65;;
70126;SDS011;57491;42.694;23.314;2023-05-07T04:26:58;11.75;;;8.23;;
70126;SDS011;57491;42.694;23.314;2023-05-07T04:29:25;11.93;;;8.47;;
70126;SDS011;57491;42.694;23.314;2023-05-07T04:31:53;10.77;;;8.43;;
70126;SDS011;57491;42.694;23.314;2023-05-07T04:34:21;14.30;;;8.80;;
70126;SDS011;57491;42.694;23.314;2023-05-07T04:36:48;12.20;;;8.38;;
70126;SDS011;57491;42.694;23.314;2023-05-07T04:39:15;13.75;;;9.70;;
70126;SDS011;57491;42.694;23.314;2023-05-07T04:41:42;12.05;;;8.95;;
70126;SDS011;57491;42.694;23.314;2023-05-07T04:44:10;12.02;;;9.38;;
70126;SDS011;57491;42.694;23.314;2023-05-07T04:46:37;13.43;;;8.85;;
70126;SDS011;57491;42.694;23.314;2023-05-07T04:49:05;13.25;;;9.88;;
70126;SDS011;57491;42.694;23.314;2023-05-07T04:51:33;11.95;;;8.93;;
70126;SDS011;57491;42.694;23.314;2023-05-07T04:54:00;13.50;;;9.17;;
70126;SDS011;57491;42.694;23.314;2023-05-07T04:56:27;11.32;;;9.00;;
70126;SDS011;57491;42.694;23.314;2023-05-07T04:58:55;15.88;;;9.70;;
70126;SDS011;57491;42.694;23.314;2023-05-07T05:01:22;13.63;;;10.13;;
70126;SDS011;57491;42.694;23.314;2023-05-07T05:03:49;14.48;;;9.68;;
70126;SDS011;57491;42.694;23.314;2023-05-07T05:06:17;14.13;;;10.13;;
70126;SDS011;57491;42.694;23.314;2023-05-07T05:08:44;14.48;;;10.27;;
70126;SDS011;57491;42.694;23.314;2023-05-07T05:11:11;12.80;;;9.60;;
70126;SDS011;57491;42.694;23.314;2023-05-07T05:13:38;12.73;;;9.45;;
70126;SDS011;57491;42.694;23.314;2023-05-07T05:16:05;13.30;;;9.18;;
70126;SDS011;57491;42.694;23.314;2023-05-07T05:18:33;16.33;;;10.30;;
70126;SDS011;57491;42.694;23.314;2023-05-07T05:21:00;13.95;;;9.60;;
70126;SDS011;57491;42.694;23.314;2023-05-07T05:23:28;18.70;;;11.20;;
70126;SDS011;57491;42.694;23.314;2023-05-07T05:25:55;13.85;;;9.48;;
70126;SDS011;57491;42.694;23.314;2023-05-07T05:30:50;14.20;;;9.50;;
70126;SDS011;57491;42.694;23.314;2023-05-07T05:33:17;17.03;;;9.80;;
70126;SDS011;57491;42.694;23.314;2023-05-07T05:35:44;14.33;;;10.37;;
70126;SDS011;57491;42.694;23.314;2023-05-07T05:38:11;14.27;;;10.93;;
70126;SDS011;57491;42.694;23.314;2023-05-07T05:40:39;13.17;;;9.93;;
70126;SDS011;57491;42.694;23.314;2023-05-07T05:43:06;14.40;;;10.02;;
70126;SDS011;57491;42.694;23.314;2023-05-07T05:45:33;16.80;;;11.20;;
70126;SDS011;57491;42.694;23.314;2023-05-07T05:48:00;15.47;;;10.80;;
70126;SDS011;57491;42.694;23.314;2023-05-07T05:50:27;14.68;;;10.88;;
70126;SDS011;57491;42.694;23.314;2023-05-07T05:52:54;16.02;;;10.63;;
70126;SDS011;57491;42.694;23.314;2023-05-07T05:55:21;15.43;;;10.73;;
70126;SDS011;57491;42.694;23.314;2023-05-07T05:57:50;16.43;;;10.43;;
70126;SDS011;57491;42.694;23.314;2023-05-07T06:00:17;13.80;;;11.10;;
70126;SDS011;57491;42.694;23.314;2023-05-07T06:02:47;14.23;;;10.52;;
70126;SDS011;57491;42.694;23.314;2023-05-07T06:05:14;13.20;;;10.80;;
70126;SDS011;57491;42.694;23.314;2023-05-07T06:07:41;13.47;;;10.87;;
70126;SDS011;57491;42.694;23.314;2023-05-07T06:10:09;18.48;;;11.40;;
70126;SDS011;57491;42.694;23.314;2023-05-07T06:12:36;16.02;;;9.65;;
70126;SDS011;57491;42.694;23.314;2023-05-07T06:15:05;14.18;;;10.88;;
70126;SDS011;57491;42.694;23.314;2023-05-07T06:17:33;15.07;;;10.60;;
70126;SDS011;57491;42.694;23.314;2023-05-07T06:20:00;14.82;;;11.50;;
70126;SDS011;57491;42.694;23.314;2023-05-07T06:22:27;12.47;;;10.50;;
70126;SDS011;57491;42.694;23.314;2023-05-07T06:24:54;14.63;;;10.80;;
70126;SDS011;57491;42.694;23.314;2023-05-07T06:27:21;15.80;;;10.35;;
70126;SDS011;57491;42.694;23.314;2023-05-07T06:29:48;14.27;;;10.63;;
70126;SDS011;57491;42.694;23.314;2023-05-07T06:32:18;15.30;;;11.00;;
70126;SDS011;57491;42.694;23.314;2023-05-07T06:34:45;13.43;;;10.15;;
70126;SDS011;57491;42.694;23.314;2023-05-07T06:37:12;16.77;;;10.43;;
70126;SDS011;57491;42.694;23.314;2023-05-07T06:39:39;15.67;;;10.90;;
70126;SDS011;57491;42.694;23.314;2023-05-07T06:42:06;12.07;;;10.50;;
70126;SDS011;57491;42.694;23.314;2023-05-07T06:44:33;14.18;;;10.32;;
70126;SDS011;57491;42.694;23.314;2023-05-07T06:47:00;12.82;;;10.18;;
70126;SDS011;57491;42.694;23.314;2023-05-07T06:49:28;12.00;;;9.83;;
70126;SDS011;57491;42.694;23.314;2023-05-07T06:51:55;16.15;;;9.85;;
70126;SDS011;57491;42.694;23.314;2023-05-07T06:54:22;13.87;;;10.23;;
70126;SDS011;57491;42.694;23.314;2023-05-07T06:56:49;13.70;;;11.13;;
70126;SDS011;57491;42.694;23.314;2023-05-07T06:59:16;14.02;;;11.00;;
70126;SDS011;57491;42.694;23.314;2023-05-07T07:01:45;14.57;;;11.32;;
70126;SDS011;57491;42.694;23.314;2023-05-07T07:04:12;14.63;;;10.75;;
70126;SDS011;57491;42.694;23.314;2023-05-07T07:06:40;16.90;;;11.20;;
70126;SDS011;57491;42.694;23.314;2023-05-07T07:09:07;16.23;;;10.82;;
70126;SDS011;57491;42.694;23.314;2023-05-07T07:11:34;16.27;;;10.00;;
70126;SDS011;57491;42.694;23.314;2023-05-07T07:14:01;18.50;;;10.30;;
70126;SDS011;57491;42.694;23.314;2023-05-07T07:16:30;16.92;;;10.30;;
70126;SDS011;57491;42.694;23.314;2023-05-07T07:18:57;10.98;;;9.25;;
70126;SDS011;57491;42.694;23.314;2023-05-07T07:21:24;14.83;;;9.47;;
70126;SDS011;57491;42.694;23.314;2023-05-07T07:23:52;12.13;;;8.90;;
70126;SDS011;57491;42.694;23.314;2023-05-07T07:26:19;14.63;;;10.02;;
70126;SDS011;57491;42.694;23.314;2023-05-07T07:28:46;13.65;;;9.55;;
70126;SDS011;57491;42.694;23.314;2023-05-07T07:31:14;14.20;;;9.88;;
70126;SDS011;57491;42.694;23.314;2023-05-07T07:33:41;18.77;;;10.38;;
70126;SDS011;57491;42.694;23.314;2023-05-07T07:36:08;15.05;;;11.15;;
70126;SDS011;57491;42.694;23.314;2023-05-07T07:38:35;15.15;;;10.20;;
70126;SDS011;57491;42.694;23.314;2023-05-07T07:41:03;12.80;;;8.90;;
70126;SDS011;57491;42.694;23.314;2023-05-07T07:43:30;12.38;;;8.88;;
70126;SDS011;57491;42.694;23.314;2023-05-07T07:45:57;12.57;;;9.57;;
70126;SDS011;57491;42.694;23.314;2023-05-07T07:48:24;12.10;;;8.90;;
70126;SDS011;57491;42.694;23.314;2023-05-07T07:50:51;15.82;;;9.77;;
70126;SDS011;57491;42.694;23.314;2023-05-07T07:53:19;11.75;;;9.13;;
70126;SDS011;57491;42.694;23.314;2023-05-07T07:55:46;12.88;;;9.73;;
70126;SDS011;57491;42.694;23.314;2023-05-07T07:58:14;13.75;;;9.40;;
70126;SDS011;57491;42.694;23.314;2023-05-07T08:00:41;11.23;;;9.15;;
70126;SDS011;57491;42.694;23.314;2023-05-07T08:03:09;11.13;;;9.23;;
70126;SDS011;57491;42.694;23.314;2023-05-07T08:08:03;12.50;;;9.15;;
70126;SDS011;57491;42.694;23.314;2023-05-07T08:10:31;14.20;;;10.23;;
70126;SDS011;57491;42.694;23.314;2023-05-07T08:13:00;13.00;;;9.38;;
70126;SDS011;57491;42.694;23.314;2023-05-07T08:15:28;11.25;;;8.68;;
70126;SDS011;57491;42.694;23.314;2023-05-07T08:17:55;13.13;;;9.38;;
70126;SDS011;57491;42.694;23.314;2023-05-07T08:20:25;14.68;;;9.07;;
70126;SDS011;57491;42.694;23.314;2023-05-07T08:22:52;11.60;;;8.77;;
70126;SDS011;57491;42.694;23.314;2023-05-07T08:25:19;12.93;;;8.75;;
70126;SDS011;57491;42.694;23.314;2023-05-07T08:27:46;18.33;;;10.57;;
70126;SDS011;57491;42.694;23.314;2023-05-07T08:30:13;15.30;;;9.02;;
70126;SDS011;57491;42.694;23.314;2023-05-07T08:32:42;13.77;;;8.52;;
70126;SDS011;57491;42.694;23.314;2023-05-07T08:35:09;14.88;;;8.60;;
70126;SDS011;57491;42.694;23.314;2023-05-07T08:37:36;10.90;;;7.82;;
70126;SDS011;57491;42.694;23.314;2023-05-07T08:40:04;11.35;;;6.70;;
70126;SDS011;57491;42.694;23.314;2023-05-07T08:42:35;11.98;;;6.75;;
70126;SDS011;57491;42.694;23.314;2023-05-07T08:45:03;8.07;;;7.28;;
70126;SDS011;57491;42.694;23.314;2023-05-07T08:47:39;9.27;;;6.35;;
70126;SDS011;57491;42.694;23.314;2023-05-07T08:50:10;7.15;;;6.43;;
70126;SDS011;57491;42.694;23.314;2023-05-07T08:52:38;7.57;;;4.80;;
70126;SDS011;57491;42.694;23.314;2023-05-07T08:55:06;6.18;;;4.63;;
70126;SDS011;57491;42.694;23.314;2023-05-07T08:57:34;8.68;;;5.20;;
70126;SDS011;57491;42.694;23.314;2023-05-07T09:00:01;7.80;;;5.90;;
70126;SDS011;57491;42.694;23.314;2023-05-07T09:02:29;7.68;;;5.57;;
70126;SDS011;57491;42.694;23.314;2023-05-07T09:07:24;6.18;;;5.55;;
70126;SDS011;57491;42.694;23.314;2023-05-07T09:09:52;9.35;;;6.15;;
70126;SDS011;57491;42.694;23.314;2023-05-07T09:12:20;6.60;;;5.60;;
70126;SDS011;57491;42.694;23.314;2023-05-07T09:14:48;9.77;;;5.32;;
70126;SDS011;57491;42.694;23.314;2023-05-07T09:22:10;8.10;;;6.68;;
70126;SDS011;57491;42.694;23.314;2023-05-07T09:24:39;8.95;;;6.45;;
70126;SDS011;57491;42.694;23.314;2023-05-07T09:27:06;8.73;;;6.55;;
70126;SDS011;57491;42.694;23.314;2023-05-07T09:29:35;8.07;;;7.20;;
70126;SDS011;57491;42.694;23.314;2023-05-07T09:32:02;11.85;;;5.65;;
70126;SDS011;57491;42.694;23.314;2023-05-07T09:34:30;6.95;;;6.10;;
70126;SDS011;57491;42.694;23.314;2023-05-07T09:36:58;10.50;;;5.97;;
70126;SDS011;57491;42.694;23.314;2023-05-07T09:39:26;13.63;;;6.00;;
70126;SDS011;57491;42.694;23.314;2023-05-07T09:42:07;8.00;;;5.28;;
70126;SDS011;57491;42.694;23.314;2023-05-07T09:44:34;7.20;;;5.13;;
70126;SDS011;57491;42.694;23.314;2023-05-07T09:49:30;7.07;;;5.45;;
70126;SDS011;57491;42.694;23.314;2023-05-07T09:52:01;6.88;;;4.72;;
70126;SDS011;57491;42.694;23.314;2023-05-07T09:54:31;9.23;;;5.40;;
70126;SDS011;57491;42.694;23.314;2023-05-07T09:57:00;5.38;;;4.35;;
70126;SDS011;57491;42.694;23.314;2023-05-07T09:59:29;5.78;;;4.68;;
70126;SDS011;57491;42.694;23.314;2023-05-07T10:01:59;7.10;;;5.07;;
70126;SDS011;57491;42.694;23.314;2023-05-07T10:04:26;5.25;;;4.53;;
70126;SDS011;57491;42.694;23.314;2023-05-07T10:06:54;6.97;;;5.53;;
70126;SDS011;57491;42.694;23.314;2023-05-07T10:09:22;5.32;;;4.45;;
70126;SDS011;57491;42.694;23.314;2023-05-07T10:11:49;5.15;;;4.28;;
70126;SDS011;57491;42.694;23.314;2023-05-07T10:14:18;5.47;;;3.53;;
70126;SDS011;57491;42.694;23.314;2023-05-07T10:16:47;5.82;;;4.43;;
70126;SDS011;57491;42.694;23.314;2023-05-07T10:19:14;6.22;;;3.85;;
70126;SDS011;57491;42.694;23.314;2023-05-07T10:21:43;4.40;;;3.97;;
70126;SDS011;57491;42.694;23.314;2023-05-07T10:24:16;5.63;;;3.78;;
70126;SDS011;57491;42.694;23.314;2023-05-07T10:26:50;4.50;;;4.10;;
70126;SDS011;57491;42.694;23.314;2023-05-07T10:29:21;4.63;;;3.70;;
70126;SDS011;57491;42.694;23.314;2023-05-07T10:31:58;6.13;;;3.60;;
70126;SDS011;57491;42.694;23.314;2023-05-07T10:34:33;3.95;;;3.55;;
70126;SDS011;57491;42.694;23.314;2023-05-07T10:37:02;4.65;;;3.92;;
70126;SDS011;57491;42.694;23.314;2023-05-07T10:39:30;4.65;;;3.30;;
70126;SDS011;57491;42.694;23.314;2023-05-07T10:42:06;5.10;;;4.10;;
70126;SDS011;57491;42.694;23.314;2023-05-07T10:44:35;7.05;;;3.90;;
70126;SDS011;57491;42.694;23.314;2023-05-07T10:47:04;5.07;;;3.97;;
70126;SDS011;57491;42.694;23.314;2023-05-07T10:49:34;6.80;;;4.10;;
70126;SDS011;57491;42.694;23.314;2023-05-07T10:52:11;5.55;;;4.20;;
70126;SDS011;57491;42.694;23.314;2023-05-07T10:54:40;5.47;;;4.00;;
70126;SDS011;57491;42.694;23.314;2023-05-07T11:00:02;5.03;;;4.40;;
70126;SDS011;57491;42.694;23.314;2023-05-07T11:05:33;5.45;;;4.38;;
70126;SDS011;57491;42.694;23.314;2023-05-07T11:08:01;5.82;;;4.60;;
70126;SDS011;57491;42.694;23.314;2023-05-07T11:10:47;4.97;;;4.18;;
70126;SDS011;57491;42.694;23.314;2023-05-07T11:13:16;6.15;;;4.63;;
70126;SDS011;57491;42.694;23.314;2023-05-07T11:15:45;5.57;;;4.30;;
70126;SDS011;57491;42.694;23.314;2023-05-07T11:18:13;4.13;;;3.70;;
70126;SDS011;57491;42.694;23.314;2023-05-07T11:20:45;5.60;;;4.20;;
70126;SDS011;57491;42.694;23.314;2023-05-07T11:26:43;5.13;;;4.63;;
70126;SDS011;57491;42.694;23.314;2023-05-07T11:29:12;7.15;;;4.35;;
70126;SDS011;57491;42.694;23.314;2023-05-07T11:31:42;4.60;;;4.20;;
70126;SDS011;57491;42.694;23.314;2023-05-07T11:34:09;6.10;;;4.30;;
70126;SDS011;57491;42.694;23.314;2023-05-07T11:36:41;4.85;;;3.90;;
70126;SDS011;57491;42.694;23.314;2023-05-07T11:41:58;4.03;;;3.70;;
70126;SDS011;57491;42.694;23.314;2023-05-07T11:44:39;5.93;;;3.75;;
70126;SDS011;57491;42.694;23.314;2023-05-07T11:47:11;4.10;;;3.67;;
70126;SDS011;57491;42.694;23.314;2023-05-07T11:49:43;5.28;;;4.78;;
70126;SDS011;57491;42.694;23.314;2023-05-07T11:52:13;4.47;;;4.07;;
70126;SDS011;57491;42.694;23.314;2023-05-07T11:54:40;5.35;;;4.50;;
70126;SDS011;57491;42.694;23.314;2023-05-07T11:57:07;4.80;;;4.40;;
70126;SDS011;57491;42.694;23.314;2023-05-07T11:59:41;6.38;;;3.97;;
70126;SDS011;57491;42.694;23.314;2023-05-07T12:02:11;3.70;;;3.40;;
70126;SDS011;57491;42.694;23.314;2023-05-07T12:04:40;4.03;;;3.72;;
70126;SDS011;57491;42.694;23.314;2023-05-07T12:09:37;4.13;;;3.63;;
70126;SDS011;57491;42.694;23.314;2023-05-07T12:12:04;4.18;;;3.63;;
70126;SDS011;57491;42.694;23.314;2023-05-07T12:14:32;3.45;;;3.05;;
70126;SDS011;57491;42.694;23.314;2023-05-07T12:19:29;5.20;;;2.55;;
70126;SDS011;57491;42.694;23.314;2023-05-07T12:21:57;3.58;;;2.35;;
70126;SDS011;57491;42.694;23.314;2023-05-07T12:24:24;3.97;;;3.13;;
70126;SDS011;57491;42.694;23.314;2023-05-07T12:26:51;4.00;;;2.90;;
70126;SDS011;57491;42.694;23.314;2023-05-07T12:29:21;4.80;;;2.92;;
70126;SDS011;57491;42.694;23.314;2023-05-07T12:31:48;4.55;;;2.97;;
70126;SDS011;57491;42.694;23.314;2023-05-07T12:34:16;3.55;;;3.20;;
70126;SDS011;57491;42.694;23.314;2023-05-07T12:36:44;4.38;;;3.63;;
70126;SDS011;57491;42.694;23.314;2023-05-07T12:39:14;5.78;;;3.85;;
70126;SDS011;57491;42.694;23.314;2023-05-07T12:41:53;3.70;;;3.40;;
70126;SDS011;57491;42.694;23.314;2023-05-07T12:44:21;3.92;;;3.38;;
70126;SDS011;57491;42.694;23.314;2023-05-07T12:46:48;5.60;;;3.53;;
70126;SDS011;57491;42.694;23.314;2023-05-07T12:49:15;5.72;;;3.15;;
70126;SDS011;57491;42.694;23.314;2023-05-07T12:51:44;4.53;;;3.17;;
70126;SDS011;57491;42.694;23.314;2023-05-07T12:54:13;4.82;;;3.10;;
70126;SDS011;57491;42.694;23.314;2023-05-07T12:56:40;4.53;;;3.40;;
70126;SDS011;57491;42.694;23.314;2023-05-07T12:59:07;4.63;;;3.35;;
70126;SDS011;57491;42.694;23.314;2023-05-07T13:01:35;3.97;;;3.45;;
70126;SDS011;57491;42.694;23.314;2023-05-07T13:06:30;5.28;;;3.67;;
70126;SDS011;57491;42.694;23.314;2023-05-07T13:08:59;3.25;;;2.95;;
70126;SDS011;57491;42.694;23.314;2023-05-07T13:11:26;3.80;;;3.47;;
70126;SDS011;57491;42.694;23.314;2023-05-07T13:13:53;4.05;;;3.47;;
70126;SDS011;57491;42.694;23.314;2023-05-07T13:16:20;4.97;;;3.60;;
70126;SDS011;57491;42.694;23.314;2023-05-07T13:18:50;3.90;;;3.20;;
70126;SDS011;57491;42.694;23.314;2023-05-07T13:21:17;3.92;;;3.38;;
70126;SDS011;57491;42.694;23.314;2023-05-07T13:23:44;4.07;;;3.15;;
70126;SDS011;57491;42.694;23.314;2023-05-07T13:26:12;7.10;;;3.13;;
70126;SDS011;57491;42.694;23.314;2023-05-07T13:28:39;3.70;;;3.00;;
70126;SDS011;57491;42.694;23.314;2023-05-07T13:31:06;4.65;;;3.13;;
70126;SDS011;57491;42.694;23.314;2023-05-07T13:33:33;3.58;;;3.00;;
70126;SDS011;57491;42.694;23.314;2023-05-07T13:36:00;5.20;;;3.95;;
70126;SDS011;57491;42.694;23.314;2023-05-07T13:38:30;3.78;;;2.95;;
70126;SDS011;57491;42.694;23.314;2023-05-07T13:40:57;5.53;;;3.78;;
70126;SDS011;57491;42.694;23.314;2023-05-07T13:43:26;3.90;;;3.33;;
70126;SDS011;57491;42.694;23.314;2023-05-07T13:45:53;3.90;;;3.42;;
70126;SDS011;57491;42.694;23.314;2023-05-07T13:48:20;3.40;;;2.90;;
70126;SDS011;57491;42.694;23.314;2023-05-07T13:50:47;3.72;;;2.92;;
70126;SDS011;57491;42.694;23.314;2023-05-07T13:53:14;6.97;;;3.95;;
70126;SDS011;57491;42.694;23.314;2023-05-07T13:55:43;6.00;;;3.67;;
70126;SDS011;57491;42.694;23.314;2023-05-07T13:58:10;4.03;;;3.60;;
70126;SDS011;57491;42.694;23.314;2023-05-07T14:00:39;3.95;;;3.13;;
70126;SDS011;57491;42.694;23.314;2023-05-07T14:03:06;4.65;;;3.65;;
70126;SDS011;57491;42.694;23.314;2023-05-07T14:05:33;4.53;;;3.28;;
70126;SDS011;57491;42.694;23.314;2023-05-07T14:08:01;3.35;;;3.08;;
70126;SDS011;57491;42.694;23.314;2023-05-07T14:10:29;3.42;;;3.08;;
70126;SDS011;57491;42.694;23.314;2023-05-07T14:12:57;6.60;;;3.33;;
70126;SDS011;57491;42.694;23.314;2023-05-07T14:15:24;3.55;;;3.22;;
70126;SDS011;57491;42.694;23.314;2023-05-07T14:17:52;4.57;;;3.00;;
70126;SDS011;57491;42.694;23.314;2023-05-07T14:20:20;4.30;;;3.90;;
70126;SDS011;57491;42.694;23.314;2023-05-07T14:22:47;3.63;;;3.33;;
70126;SDS011;57491;42.694;23.314;2023-05-07T14:25:14;4.57;;;3.55;;
70126;SDS011;57491;42.694;23.314;2023-05-07T14:27:41;4.07;;;3.22;;
70126;SDS011;57491;42.694;23.314;2023-05-07T14:30:08;6.55;;;3.58;;
70126;SDS011;57491;42.694;23.314;2023-05-07T14:32:35;3.78;;;2.95;;
70126;SDS011;57491;42.694;23.314;2023-05-07T14:35:04;5.85;;;3.67;;
70126;SDS011;57491;42.694;23.314;2023-05-07T14:37:31;5.35;;;4.10;;
70126;SDS011;57491;42.694;23.314;2023-05-07T14:39:58;6.43;;;3.30;;
70126;SDS011;57491;42.694;23.314;2023-05-07T14:42:25;3.50;;;3.20;;
70126;SDS011;57491;42.694;23.314;2023-05-07T14:44:52;5.30;;;3.53;;
70126;SDS011;57491;42.694;23.314;2023-05-07T14:47:19;4.13;;;3.10;;
70126;SDS011;57491;42.694;23.314;2023-05-07T14:49:46;4.82;;;3.20;;
70126;SDS011;57491;42.694;23.314;2023-05-07T14:52:14;4.20;;;3.60;;
70126;SDS011;57491;42.694;23.314;2023-05-07T14:54:41;4.28;;;3.40;;
70126;SDS011;57491;42.694;23.314;2023-05-07T14:57:09;5.65;;;3.40;;
70126;SDS011;57491;42.694;23.314;2023-05-07T14:59:38;6.20;;;3.60;;
70126;SDS011;57491;42.694;23.314;2023-05-07T15:02:06;4.35;;;3.05;;
70126;SDS011;57491;42.694;23.314;2023-05-07T15:04:34;5.63;;;3.72;;